sensor_id;sensor_type;location;lat;lon;timestamp;P1;durP1;ratioP1;P2;durP2;ratioP2
71298;SDS011;59083;47.974;21.722;2023-06-14T00:00:01;13.20;;;5.72;;
71298;SDS011;59083;47.974;21.722;2023-06-14T00:03:05;13.60;;;5.43;;
71298;SDS011;59083;47.974;21.722;2023-06-14T00:06:07;12.87;;;6.03;;
71298;SDS011;59083;47.974;21.722;2023-06-14T00:09:08;14.67;;;6.13;;
71298;SDS011;59083;47.974;21.722;2023-06-14T00:12:10;11.35;;;6.03;;
71298;SDS011;59083;47.974;21.722;2023-06-14T00:15:11;12.57;;;6.40;;
71298;SDS011;59083;47.974;21.722;2023-06-14T00:18:12;12.90;;;6.10;;
71298;SDS011;59083;47.974;21.722;2023-06-14T00:21:13;13.40;;;6.45;;
71298;SDS011;59083;47.974;21.722;2023-06-14T00:24:15;14.20;;;6.37;;
71298;SDS011;59083;47.974;21.722;2023-06-14T00:27:16;15.95;;;7.03;;
71298;SDS011;59083;47.974;21.722;2023-06-14T00:30:18;14.02;;;6.72;;
71298;SDS011;59083;47.974;21.722;2023-06-14T00:33:19;14.35;;;6.12;;
71298;SDS011;59083;47.974;21.722;2023-06-14T00:36:21;14.53;;;6.60;;
71298;SDS011;59083;47.974;21.722;2023-06-14T00:39:22;15.67;;;6.27;;
71298;SDS011;59083;47.974;21.722;2023-06-14T00:42:26;16.92;;;6.72;;
71298;SDS011;59083;47.974;21.722;2023-06-14T00:45:28;12.48;;;6.30;;
71298;SDS011;59083;47.974;21.722;2023-06-14T00:48:29;12.20;;;6.37;;
71298;SDS011;59083;47.974;21.722;2023-06-14T00:51:32;13.40;;;6.40;;
71298;SDS011;59083;47.974;21.722;2023-06-14T00:54:34;12.03;;;6.00;;
71298;SDS011;59083;47.974;21.722;2023-06-14T00:57:37;18.95;;;6.15;;
71298;SDS011;59083;47.974;21.722;2023-06-14T01:00:39;15.25;;;6.47;;
71298;SDS011;59083;47.974;21.722;2023-06-14T01:03:40;13.05;;;7.30;;
71298;SDS011;59083;47.974;21.722;2023-06-14T01:06:46;13.23;;;6.30;;
71298;SDS011;59083;47.974;21.722;2023-06-14T01:10:26;13.47;;;6.50;;
71298;SDS011;59083;47.974;21.722;2023-06-14T01:13:35;13.27;;;6.50;;
71298;SDS011;59083;47.974;21.722;2023-06-14T01:16:38;14.55;;;6.22;;
71298;SDS011;59083;47.974;21.722;2023-06-14T01:19:41;13.65;;;6.53;;
71298;SDS011;59083;47.974;21.722;2023-06-14T01:22:51;15.60;;;6.40;;
71298;SDS011;59083;47.974;21.722;2023-06-14T01:25:56;15.67;;;6.77;;
71298;SDS011;59083;47.974;21.722;2023-06-14T01:28:57;14.18;;;6.95;;
71298;SDS011;59083;47.974;21.722;2023-06-14T01:31:59;14.27;;;6.75;;
71298;SDS011;59083;47.974;21.722;2023-06-14T01:35:05;15.68;;;6.60;;
71298;SDS011;59083;47.974;21.722;2023-06-14T01:38:07;14.73;;;6.00;;
71298;SDS011;59083;47.974;21.722;2023-06-14T01:41:08;14.60;;;6.93;;
71298;SDS011;59083;47.974;21.722;2023-06-14T01:44:11;15.48;;;7.05;;
71298;SDS011;59083;47.974;21.722;2023-06-14T01:47:14;14.82;;;6.30;;
71298;SDS011;59083;47.974;21.722;2023-06-14T01:50:16;19.37;;;7.03;;
71298;SDS011;59083;47.974;21.722;2023-06-14T01:53:20;12.77;;;5.87;;
71298;SDS011;59083;47.974;21.722;2023-06-14T01:56:22;13.40;;;6.50;;
71298;SDS011;59083;47.974;21.722;2023-06-14T01:59:23;17.73;;;6.55;;
71298;SDS011;59083;47.974;21.722;2023-06-14T02:02:24;15.05;;;6.72;;
71298;SDS011;59083;47.974;21.722;2023-06-14T02:05:27;15.93;;;6.50;;
71298;SDS011;59083;47.974;21.722;2023-06-14T02:08:28;15.47;;;6.80;;
71298;SDS011;59083;47.974;21.722;2023-06-14T02:11:30;15.30;;;6.60;;
71298;SDS011;59083;47.974;21.722;2023-06-14T02:14:31;13.23;;;6.20;;
71298;SDS011;59083;47.974;21.722;2023-06-14T02:17:34;13.48;;;6.30;;
71298;SDS011;59083;47.974;21.722;2023-06-14T02:20:40;14.45;;;6.68;;
71298;SDS011;59083;47.974;21.722;2023-06-14T02:23:41;16.13;;;7.10;;
71298;SDS011;59083;47.974;21.722;2023-06-14T02:26:42;13.63;;;6.47;;
71298;SDS011;59083;47.974;21.722;2023-06-14T02:29:47;12.70;;;6.15;;
71298;SDS011;59083;47.974;21.722;2023-06-14T02:32:48;12.40;;;6.12;;
71298;SDS011;59083;47.974;21.722;2023-06-14T02:35:51;13.73;;;6.32;;
71298;SDS011;59083;47.974;21.722;2023-06-14T02:38:53;14.57;;;6.73;;
71298;SDS011;59083;47.974;21.722;2023-06-14T02:41:54;13.93;;;7.07;;
71298;SDS011;59083;47.974;21.722;2023-06-14T02:44:56;12.95;;;6.62;;
71298;SDS011;59083;47.974;21.722;2023-06-14T02:47:57;15.60;;;7.57;;
71298;SDS011;59083;47.974;21.722;2023-06-14T02:50:59;15.38;;;6.97;;
71298;SDS011;59083;47.974;21.722;2023-06-14T02:54:00;15.43;;;7.10;;
71298;SDS011;59083;47.974;21.722;2023-06-14T02:57:01;17.13;;;6.20;;
71298;SDS011;59083;47.974;21.722;2023-06-14T03:00:02;14.57;;;7.18;;
71298;SDS011;59083;47.974;21.722;2023-06-14T03:03:05;12.32;;;6.78;;
71298;SDS011;59083;47.974;21.722;2023-06-14T03:06:15;14.80;;;6.68;;
71298;SDS011;59083;47.974;21.722;2023-06-14T03:09:18;14.70;;;6.83;;
71298;SDS011;59083;47.974;21.722;2023-06-14T03:12:20;18.23;;;7.10;;
71298;SDS011;59083;47.974;21.722;2023-06-14T03:15:22;18.70;;;7.00;;
71298;SDS011;59083;47.974;21.722;2023-06-14T03:18:25;14.75;;;7.05;;
71298;SDS011;59083;47.974;21.722;2023-06-14T03:21:28;14.52;;;6.95;;
71298;SDS011;59083;47.974;21.722;2023-06-14T03:24:30;16.07;;;6.97;;
71298;SDS011;59083;47.974;21.722;2023-06-14T03:27:37;15.90;;;7.17;;
71298;SDS011;59083;47.974;21.722;2023-06-14T03:30:39;18.15;;;7.62;;
71298;SDS011;59083;47.974;21.722;2023-06-14T03:33:40;16.17;;;7.15;;
71298;SDS011;59083;47.974;21.722;2023-06-14T03:36:42;28.50;;;14.38;;
71298;SDS011;59083;47.974;21.722;2023-06-14T03:39:44;31.33;;;17.83;;
71298;SDS011;59083;47.974;21.722;2023-06-14T03:42:48;17.43;;;9.13;;
71298;SDS011;59083;47.974;21.722;2023-06-14T03:45:49;16.80;;;8.02;;
71298;SDS011;59083;47.974;21.722;2023-06-14T03:48:52;19.12;;;8.02;;
71298;SDS011;59083;47.974;21.722;2023-06-14T03:51:53;21.60;;;10.18;;
71298;SDS011;59083;47.974;21.722;2023-06-14T03:54:55;18.77;;;8.87;;
71298;SDS011;59083;47.974;21.722;2023-06-14T03:57:57;15.33;;;7.33;;
71298;SDS011;59083;47.974;21.722;2023-06-14T04:00:58;14.18;;;7.37;;
71298;SDS011;59083;47.974;21.722;2023-06-14T04:04:00;17.17;;;8.27;;
71298;SDS011;59083;47.974;21.722;2023-06-14T04:07:02;15.35;;;7.07;;
71298;SDS011;59083;47.974;21.722;2023-06-14T04:10:06;15.80;;;7.60;;
71298;SDS011;59083;47.974;21.722;2023-06-14T04:13:08;16.50;;;7.00;;
71298;SDS011;59083;47.974;21.722;2023-06-14T04:16:13;15.77;;;7.07;;
71298;SDS011;59083;47.974;21.722;2023-06-14T04:19:15;15.73;;;7.30;;
71298;SDS011;59083;47.974;21.722;2023-06-14T04:22:17;33.13;;;8.95;;
71298;SDS011;59083;47.974;21.722;2023-06-14T04:25:18;23.50;;;11.23;;
71298;SDS011;59083;47.974;21.722;2023-06-14T04:28:21;20.53;;;10.30;;
71298;SDS011;59083;47.974;21.722;2023-06-14T04:31:29;20.05;;;8.70;;
71298;SDS011;59083;47.974;21.722;2023-06-14T04:34:30;25.77;;;13.80;;
71298;SDS011;59083;47.974;21.722;2023-06-14T04:37:34;21.80;;;10.52;;
71298;SDS011;59083;47.974;21.722;2023-06-14T04:40:41;18.80;;;9.40;;
71298;SDS011;59083;47.974;21.722;2023-06-14T04:43:49;15.37;;;7.87;;
71298;SDS011;59083;47.974;21.722;2023-06-14T04:46:51;14.98;;;8.10;;
71298;SDS011;59083;47.974;21.722;2023-06-14T04:49:53;16.20;;;8.27;;
71298;SDS011;59083;47.974;21.722;2023-06-14T04:52:55;17.50;;;8.00;;
71298;SDS011;59083;47.974;21.722;2023-06-14T04:55:58;16.93;;;8.20;;
71298;SDS011;59083;47.974;21.722;2023-06-14T04:59:00;16.30;;;8.37;;
71298;SDS011;59083;47.974;21.722;2023-06-14T05:02:01;19.23;;;8.05;;
71298;SDS011;59083;47.974;21.722;2023-06-14T05:05:03;18.30;;;9.20;;
71298;SDS011;59083;47.974;21.722;2023-06-14T05:08:08;16.80;;;8.38;;
71298;SDS011;59083;47.974;21.722;2023-06-14T05:11:10;16.97;;;8.60;;
71298;SDS011;59083;47.974;21.722;2023-06-14T05:14:11;17.93;;;7.87;;
71298;SDS011;59083;47.974;21.722;2023-06-14T05:17:13;17.48;;;8.90;;
71298;SDS011;59083;47.974;21.722;2023-06-14T05:20:15;18.37;;;8.80;;
71298;SDS011;59083;47.974;21.722;2023-06-14T05:23:16;17.55;;;8.15;;
71298;SDS011;59083;47.974;21.722;2023-06-14T05:26:17;15.60;;;8.07;;
71298;SDS011;59083;47.974;21.722;2023-06-14T05:29:18;15.53;;;7.60;;
71298;SDS011;59083;47.974;21.722;2023-06-14T05:32:20;16.67;;;8.43;;
71298;SDS011;59083;47.974;21.722;2023-06-14T05:35:21;15.13;;;8.13;;
71298;SDS011;59083;47.974;21.722;2023-06-14T05:38:24;16.45;;;8.85;;
71298;SDS011;59083;47.974;21.722;2023-06-14T05:41:26;20.53;;;8.40;;
71298;SDS011;59083;47.974;21.722;2023-06-14T05:44:27;15.97;;;7.70;;
71298;SDS011;59083;47.974;21.722;2023-06-14T05:47:29;14.35;;;7.80;;
71298;SDS011;59083;47.974;21.722;2023-06-14T05:50:30;16.10;;;7.60;;
71298;SDS011;59083;47.974;21.722;2023-06-14T05:53:31;15.55;;;7.05;;
71298;SDS011;59083;47.974;21.722;2023-06-14T05:56:32;13.67;;;7.33;;
71298;SDS011;59083;47.974;21.722;2023-06-14T05:59:34;13.73;;;6.63;;
71298;SDS011;59083;47.974;21.722;2023-06-14T06:02:35;11.80;;;6.75;;
71298;SDS011;59083;47.974;21.722;2023-06-14T06:05:36;10.38;;;5.85;;
71298;SDS011;59083;47.974;21.722;2023-06-14T06:08:37;11.98;;;7.03;;
71298;SDS011;59083;47.974;21.722;2023-06-14T06:11:39;11.63;;;6.33;;
71298;SDS011;59083;47.974;21.722;2023-06-14T06:14:40;14.10;;;6.70;;
71298;SDS011;59083;47.974;21.722;2023-06-14T06:17:42;13.43;;;7.15;;
71298;SDS011;59083;47.974;21.722;2023-06-14T06:20:43;13.23;;;6.90;;
71298;SDS011;59083;47.974;21.722;2023-06-14T06:23:45;10.23;;;5.70;;
71298;SDS011;59083;47.974;21.722;2023-06-14T06:26:46;9.80;;;5.10;;
71298;SDS011;59083;47.974;21.722;2023-06-14T06:29:47;9.10;;;5.13;;
71298;SDS011;59083;47.974;21.722;2023-06-14T06:32:49;8.80;;;5.37;;
71298;SDS011;59083;47.974;21.722;2023-06-14T06:35:51;11.68;;;6.53;;
71298;SDS011;59083;47.974;21.722;2023-06-14T06:38:52;11.25;;;6.43;;
71298;SDS011;59083;47.974;21.722;2023-06-14T06:41:54;10.03;;;5.50;;
71298;SDS011;59083;47.974;21.722;2023-06-14T06:45:00;13.00;;;6.67;;
71298;SDS011;59083;47.974;21.722;2023-06-14T06:48:02;10.45;;;4.97;;
71298;SDS011;59083;47.974;21.722;2023-06-14T06:51:03;9.93;;;5.03;;
71298;SDS011;59083;47.974;21.722;2023-06-14T06:54:04;7.35;;;4.00;;
71298;SDS011;59083;47.974;21.722;2023-06-14T06:57:06;9.87;;;5.30;;
71298;SDS011;59083;47.974;21.722;2023-06-14T07:00:08;11.00;;;5.30;;
71298;SDS011;59083;47.974;21.722;2023-06-14T07:03:10;10.20;;;5.47;;
71298;SDS011;59083;47.974;21.722;2023-06-14T07:06:12;12.77;;;5.20;;
71298;SDS011;59083;47.974;21.722;2023-06-14T07:09:13;10.40;;;4.78;;
71298;SDS011;59083;47.974;21.722;2023-06-14T07:12:16;8.13;;;4.30;;
71298;SDS011;59083;47.974;21.722;2023-06-14T07:15:18;8.67;;;4.13;;
71298;SDS011;59083;47.974;21.722;2023-06-14T07:18:19;7.95;;;4.32;;
71298;SDS011;59083;47.974;21.722;2023-06-14T07:21:20;8.70;;;4.68;;
71298;SDS011;59083;47.974;21.722;2023-06-14T07:24:22;7.97;;;4.22;;
71298;SDS011;59083;47.974;21.722;2023-06-14T07:27:24;8.10;;;4.10;;
71298;SDS011;59083;47.974;21.722;2023-06-14T07:30:25;11.57;;;4.43;;
71298;SDS011;59083;47.974;21.722;2023-06-14T07:33:27;9.30;;;4.72;;
71298;SDS011;59083;47.974;21.722;2023-06-14T07:36:29;8.75;;;4.40;;
71298;SDS011;59083;47.974;21.722;2023-06-14T07:39:30;8.25;;;4.57;;
71298;SDS011;59083;47.974;21.722;2023-06-14T07:42:32;13.33;;;4.50;;
71298;SDS011;59083;47.974;21.722;2023-06-14T07:45:35;9.47;;;4.30;;
71298;SDS011;59083;47.974;21.722;2023-06-14T07:48:38;9.25;;;4.20;;
71298;SDS011;59083;47.974;21.722;2023-06-14T07:51:39;7.97;;;4.07;;
71298;SDS011;59083;47.974;21.722;2023-06-14T07:54:40;11.10;;;4.93;;
71298;SDS011;59083;47.974;21.722;2023-06-14T07:57:41;8.87;;;4.77;;
71298;SDS011;59083;47.974;21.722;2023-06-14T08:00:43;17.70;;;9.80;;
71298;SDS011;59083;47.974;21.722;2023-06-14T08:03:45;9.77;;;5.03;;
71298;SDS011;59083;47.974;21.722;2023-06-14T08:06:46;10.60;;;4.90;;
71298;SDS011;59083;47.974;21.722;2023-06-14T08:09:48;8.63;;;4.57;;
71298;SDS011;59083;47.974;21.722;2023-06-14T08:12:50;18.33;;;10.90;;
71298;SDS011;59083;47.974;21.722;2023-06-14T08:15:51;13.50;;;5.60;;
71298;SDS011;59083;47.974;21.722;2023-06-14T08:18:52;9.88;;;5.20;;
71298;SDS011;59083;47.974;21.722;2023-06-14T08:21:54;8.32;;;4.60;;
71298;SDS011;59083;47.974;21.722;2023-06-14T08:24:56;7.75;;;4.00;;
71298;SDS011;59083;47.974;21.722;2023-06-14T08:27:58;7.50;;;4.23;;
71298;SDS011;59083;47.974;21.722;2023-06-14T08:30:59;11.17;;;4.73;;
71298;SDS011;59083;47.974;21.722;2023-06-14T08:34:01;9.82;;;4.53;;
71298;SDS011;59083;47.974;21.722;2023-06-14T08:37:02;11.43;;;5.80;;
71298;SDS011;59083;47.974;21.722;2023-06-14T08:40:03;8.63;;;4.25;;
71298;SDS011;59083;47.974;21.722;2023-06-14T08:43:06;10.53;;;4.50;;
71298;SDS011;59083;47.974;21.722;2023-06-14T08:46:08;7.40;;;3.57;;
71298;SDS011;59083;47.974;21.722;2023-06-14T08:49:12;7.00;;;3.80;;
71298;SDS011;59083;47.974;21.722;2023-06-14T08:52:13;9.65;;;4.00;;
71298;SDS011;59083;47.974;21.722;2023-06-14T08:55:20;8.35;;;4.30;;
71298;SDS011;59083;47.974;21.722;2023-06-14T08:58:29;11.63;;;5.07;;
71298;SDS011;59083;47.974;21.722;2023-06-14T09:01:33;9.70;;;5.87;;
71298;SDS011;59083;47.974;21.722;2023-06-14T09:04:35;7.97;;;4.10;;
71298;SDS011;59083;47.974;21.722;2023-06-14T09:07:37;9.45;;;4.95;;
71298;SDS011;59083;47.974;21.722;2023-06-14T09:10:39;8.05;;;4.37;;
71298;SDS011;59083;47.974;21.722;2023-06-14T09:13:41;7.53;;;3.97;;
71298;SDS011;59083;47.974;21.722;2023-06-14T09:16:43;9.40;;;4.00;;
71298;SDS011;59083;47.974;21.722;2023-06-14T09:19:45;8.20;;;3.78;;
71298;SDS011;59083;47.974;21.722;2023-06-14T09:22:46;9.63;;;3.60;;
71298;SDS011;59083;47.974;21.722;2023-06-14T09:25:47;11.52;;;4.72;;
71298;SDS011;59083;47.974;21.722;2023-06-14T09:28:49;10.27;;;5.37;;
71298;SDS011;59083;47.974;21.722;2023-06-14T09:31:51;9.33;;;3.50;;
71298;SDS011;59083;47.974;21.722;2023-06-14T09:34:53;7.43;;;3.72;;
71298;SDS011;59083;47.974;21.722;2023-06-14T09:37:54;10.07;;;4.68;;
71298;SDS011;59083;47.974;21.722;2023-06-14T09:40:57;8.00;;;4.30;;
71298;SDS011;59083;47.974;21.722;2023-06-14T09:43:59;9.20;;;4.30;;
71298;SDS011;59083;47.974;21.722;2023-06-14T09:47:04;9.10;;;4.30;;
71298;SDS011;59083;47.974;21.722;2023-06-14T09:50:06;9.73;;;4.60;;
71298;SDS011;59083;47.974;21.722;2023-06-14T09:53:09;9.05;;;4.30;;
71298;SDS011;59083;47.974;21.722;2023-06-14T09:56:11;8.15;;;4.45;;
71298;SDS011;59083;47.974;21.722;2023-06-14T09:59:14;7.50;;;3.80;;
71298;SDS011;59083;47.974;21.722;2023-06-14T10:02:29;9.47;;;4.60;;
71298;SDS011;59083;47.974;21.722;2023-06-14T10:05:34;9.55;;;4.60;;
71298;SDS011;59083;47.974;21.722;2023-06-14T10:08:37;9.07;;;3.97;;
71298;SDS011;59083;47.974;21.722;2023-06-14T10:11:40;8.23;;;3.97;;
71298;SDS011;59083;47.974;21.722;2023-06-14T10:14:44;6.63;;;3.70;;
71298;SDS011;59083;47.974;21.722;2023-06-14T10:17:47;9.60;;;4.00;;
71298;SDS011;59083;47.974;21.722;2023-06-14T10:20:54;11.40;;;3.97;;
71298;SDS011;59083;47.974;21.722;2023-06-14T10:24:06;8.52;;;3.87;;
71298;SDS011;59083;47.974;21.722;2023-06-14T10:27:14;12.65;;;8.07;;
71298;SDS011;59083;47.974;21.722;2023-06-14T10:30:18;7.70;;;3.97;;
71298;SDS011;59083;47.974;21.722;2023-06-14T10:33:26;16.90;;;4.80;;
71298;SDS011;59083;47.974;21.722;2023-06-14T10:36:28;8.68;;;3.92;;
71298;SDS011;59083;47.974;21.722;2023-06-14T10:39:32;7.93;;;4.62;;
71298;SDS011;59083;47.974;21.722;2023-06-14T10:42:40;10.93;;;5.00;;
71298;SDS011;59083;47.974;21.722;2023-06-14T10:49:20;8.63;;;4.27;;
71298;SDS011;59083;47.974;21.722;2023-06-14T10:52:44;11.48;;;4.10;;
71298;SDS011;59083;47.974;21.722;2023-06-14T10:55:46;10.05;;;5.10;;
71298;SDS011;59083;47.974;21.722;2023-06-14T10:58:47;10.63;;;4.05;;
71298;SDS011;59083;47.974;21.722;2023-06-14T11:05:23;10.23;;;4.80;;
71298;SDS011;59083;47.974;21.722;2023-06-14T11:08:50;10.75;;;4.30;;
71298;SDS011;59083;47.974;21.722;2023-06-14T11:11:58;8.68;;;4.30;;
71298;SDS011;59083;47.974;21.722;2023-06-14T11:15:02;10.07;;;4.15;;
71298;SDS011;59083;47.974;21.722;2023-06-14T11:18:04;6.83;;;4.10;;
71298;SDS011;59083;47.974;21.722;2023-06-14T11:21:07;8.80;;;3.73;;
71298;SDS011;59083;47.974;21.722;2023-06-14T11:24:10;13.98;;;4.12;;
71298;SDS011;59083;47.974;21.722;2023-06-14T11:27:12;7.15;;;3.53;;
71298;SDS011;59083;47.974;21.722;2023-06-14T11:30:14;8.20;;;4.12;;
71298;SDS011;59083;47.974;21.722;2023-06-14T11:33:16;7.43;;;3.60;;
71298;SDS011;59083;47.974;21.722;2023-06-14T11:36:21;7.47;;;3.50;;
71298;SDS011;59083;47.974;21.722;2023-06-14T11:39:24;9.00;;;3.95;;
71298;SDS011;59083;47.974;21.722;2023-06-14T11:42:29;10.10;;;4.07;;
71298;SDS011;59083;47.974;21.722;2023-06-14T11:45:30;11.02;;;3.65;;
71298;SDS011;59083;47.974;21.722;2023-06-14T11:48:41;7.93;;;3.90;;
71298;SDS011;59083;47.974;21.722;2023-06-14T11:51:43;7.63;;;3.60;;
71298;SDS011;59083;47.974;21.722;2023-06-14T11:54:47;7.93;;;3.58;;
71298;SDS011;59083;47.974;21.722;2023-06-14T11:57:48;8.18;;;3.72;;
71298;SDS011;59083;47.974;21.722;2023-06-14T12:00:50;7.87;;;3.60;;
71298;SDS011;59083;47.974;21.722;2023-06-14T12:03:53;10.17;;;5.53;;
71298;SDS011;59083;47.974;21.722;2023-06-14T12:06:55;8.60;;;4.47;;
71298;SDS011;59083;47.974;21.722;2023-06-14T12:12:59;11.05;;;3.55;;
71298;SDS011;59083;47.974;21.722;2023-06-14T12:16:01;8.63;;;3.67;;
71298;SDS011;59083;47.974;21.722;2023-06-14T12:19:15;5.80;;;3.23;;
71298;SDS011;59083;47.974;21.722;2023-06-14T12:22:17;7.75;;;3.60;;
71298;SDS011;59083;47.974;21.722;2023-06-14T12:28:36;8.85;;;4.00;;
71298;SDS011;59083;47.974;21.722;2023-06-14T12:31:37;6.53;;;3.60;;
71298;SDS011;59083;47.974;21.722;2023-06-14T12:34:38;6.57;;;3.57;;
71298;SDS011;59083;47.974;21.722;2023-06-14T12:37:39;6.93;;;3.58;;
71298;SDS011;59083;47.974;21.722;2023-06-14T12:40:41;7.20;;;3.67;;
71298;SDS011;59083;47.974;21.722;2023-06-14T12:43:42;8.32;;;4.50;;
71298;SDS011;59083;47.974;21.722;2023-06-14T12:46:43;8.68;;;3.92;;
71298;SDS011;59083;47.974;21.722;2023-06-14T12:49:45;6.83;;;3.40;;
71298;SDS011;59083;47.974;21.722;2023-06-14T12:52:46;9.18;;;3.70;;
71298;SDS011;59083;47.974;21.722;2023-06-14T12:55:47;6.95;;;3.62;;
71298;SDS011;59083;47.974;21.722;2023-06-14T12:58:49;8.40;;;3.60;;
71298;SDS011;59083;47.974;21.722;2023-06-14T13:01:50;6.10;;;3.20;;
71298;SDS011;59083;47.974;21.722;2023-06-14T13:04:51;9.80;;;3.87;;
71298;SDS011;59083;47.974;21.722;2023-06-14T13:07:52;8.95;;;4.12;;
71298;SDS011;59083;47.974;21.722;2023-06-14T13:10:54;8.80;;;4.07;;
71298;SDS011;59083;47.974;21.722;2023-06-14T13:13:55;6.60;;;3.70;;
71298;SDS011;59083;47.974;21.722;2023-06-14T13:16:56;8.15;;;3.72;;
71298;SDS011;59083;47.974;21.722;2023-06-14T13:19:57;6.83;;;3.50;;
71298;SDS011;59083;47.974;21.722;2023-06-14T13:22:59;9.00;;;3.40;;
71298;SDS011;59083;47.974;21.722;2023-06-14T13:26:00;8.32;;;3.20;;
71298;SDS011;59083;47.974;21.722;2023-06-14T13:29:01;6.87;;;3.67;;
71298;SDS011;59083;47.974;21.722;2023-06-14T13:32:03;6.95;;;4.12;;
71298;SDS011;59083;47.974;21.722;2023-06-14T13:35:05;5.90;;;3.17;;
71298;SDS011;59083;47.974;21.722;2023-06-14T13:38:06;7.80;;;3.20;;
71298;SDS011;59083;47.974;21.722;2023-06-14T13:41:09;9.05;;;3.60;;
71298;SDS011;59083;47.974;21.722;2023-06-14T13:44:10;9.85;;;3.87;;
71298;SDS011;59083;47.974;21.722;2023-06-14T13:47:28;10.75;;;4.12;;
71298;SDS011;59083;47.974;21.722;2023-06-14T13:50:31;10.33;;;3.50;;
71298;SDS011;59083;47.974;21.722;2023-06-14T13:53:33;9.93;;;3.22;;
71298;SDS011;59083;47.974;21.722;2023-06-14T13:56:34;10.40;;;3.55;;
71298;SDS011;59083;47.974;21.722;2023-06-14T13:59:36;17.45;;;5.12;;
71298;SDS011;59083;47.974;21.722;2023-06-14T14:02:37;12.23;;;5.87;;
71298;SDS011;59083;47.974;21.722;2023-06-14T14:05:38;10.23;;;3.47;;
71298;SDS011;59083;47.974;21.722;2023-06-14T14:08:40;5.95;;;3.47;;
71298;SDS011;59083;47.974;21.722;2023-06-14T14:11:41;6.62;;;3.62;;
71298;SDS011;59083;47.974;21.722;2023-06-14T14:14:43;12.82;;;3.83;;
71298;SDS011;59083;47.974;21.722;2023-06-14T14:17:44;9.13;;;4.78;;
71298;SDS011;59083;47.974;21.722;2023-06-14T14:20:45;7.03;;;3.60;;
71298;SDS011;59083;47.974;21.722;2023-06-14T14:23:46;8.38;;;4.00;;
71298;SDS011;59083;47.974;21.722;2023-06-14T14:26:48;9.23;;;3.53;;
71298;SDS011;59083;47.974;21.722;2023-06-14T14:29:50;8.23;;;3.20;;
71298;SDS011;59083;47.974;21.722;2023-06-14T14:32:51;7.03;;;3.60;;
71298;SDS011;59083;47.974;21.722;2023-06-14T14:35:53;7.30;;;3.47;;
71298;SDS011;59083;47.974;21.722;2023-06-14T14:38:54;6.45;;;3.28;;
71298;SDS011;59083;47.974;21.722;2023-06-14T14:41:56;9.52;;;3.28;;
71298;SDS011;59083;47.974;21.722;2023-06-14T14:44:57;7.87;;;3.47;;
71298;SDS011;59083;47.974;21.722;2023-06-14T14:47:59;6.80;;;3.53;;
71298;SDS011;59083;47.974;21.722;2023-06-14T14:51:01;8.47;;;3.20;;
71298;SDS011;59083;47.974;21.722;2023-06-14T14:54:03;6.72;;;3.30;;
71298;SDS011;59083;47.974;21.722;2023-06-14T14:57:04;7.40;;;3.58;;
71298;SDS011;59083;47.974;21.722;2023-06-14T15:00:06;14.95;;;3.30;;
71298;SDS011;59083;47.974;21.722;2023-06-14T15:03:09;6.93;;;3.00;;
71298;SDS011;59083;47.974;21.722;2023-06-14T15:06:12;7.20;;;3.17;;
71298;SDS011;59083;47.974;21.722;2023-06-14T15:09:16;7.65;;;3.33;;
71298;SDS011;59083;47.974;21.722;2023-06-14T15:12:17;9.68;;;3.87;;
71298;SDS011;59083;47.974;21.722;2023-06-14T15:15:21;6.75;;;3.22;;
71298;SDS011;59083;47.974;21.722;2023-06-14T15:18:23;6.80;;;3.22;;
71298;SDS011;59083;47.974;21.722;2023-06-14T15:21:24;7.93;;;4.10;;
71298;SDS011;59083;47.974;21.722;2023-06-14T15:24:26;8.65;;;3.50;;
71298;SDS011;59083;47.974;21.722;2023-06-14T15:27:27;6.68;;;3.10;;
71298;SDS011;59083;47.974;21.722;2023-06-14T15:30:28;5.95;;;2.92;;
71298;SDS011;59083;47.974;21.722;2023-06-14T15:33:29;7.12;;;3.10;;
71298;SDS011;59083;47.974;21.722;2023-06-14T15:36:31;8.67;;;4.60;;
71298;SDS011;59083;47.974;21.722;2023-06-14T15:39:32;9.15;;;4.78;;
71298;SDS011;59083;47.974;21.722;2023-06-14T15:42:33;7.80;;;3.55;;
71298;SDS011;59083;47.974;21.722;2023-06-14T15:45:34;6.97;;;3.50;;
71298;SDS011;59083;47.974;21.722;2023-06-14T15:48:38;9.02;;;4.37;;
71298;SDS011;59083;47.974;21.722;2023-06-14T15:51:39;7.30;;;3.43;;
71298;SDS011;59083;47.974;21.722;2023-06-14T15:54:40;7.62;;;3.60;;
71298;SDS011;59083;47.974;21.722;2023-06-14T15:57:42;6.57;;;3.53;;
71298;SDS011;59083;47.974;21.722;2023-06-14T16:00:43;7.03;;;3.30;;
71298;SDS011;59083;47.974;21.722;2023-06-14T16:03:44;9.20;;;5.03;;
71298;SDS011;59083;47.974;21.722;2023-06-14T16:06:45;9.03;;;4.37;;
71298;SDS011;59083;47.974;21.722;2023-06-14T16:09:46;12.43;;;6.93;;
71298;SDS011;59083;47.974;21.722;2023-06-14T16:12:48;8.48;;;4.18;;
71298;SDS011;59083;47.974;21.722;2023-06-14T16:15:49;8.55;;;3.37;;
71298;SDS011;59083;47.974;21.722;2023-06-14T16:18:50;8.63;;;4.15;;
71298;SDS011;59083;47.974;21.722;2023-06-14T16:21:51;7.43;;;3.30;;
71298;SDS011;59083;47.974;21.722;2023-06-14T16:24:52;6.80;;;3.42;;
71298;SDS011;59083;47.974;21.722;2023-06-14T16:27:54;11.15;;;4.93;;
71298;SDS011;59083;47.974;21.722;2023-06-14T16:30:55;8.18;;;3.53;;
71298;SDS011;59083;47.974;21.722;2023-06-14T16:33:56;7.55;;;4.10;;
71298;SDS011;59083;47.974;21.722;2023-06-14T16:36:57;7.87;;;3.93;;
71298;SDS011;59083;47.974;21.722;2023-06-14T16:39:59;6.37;;;3.47;;
71298;SDS011;59083;47.974;21.722;2023-06-14T16:43:00;9.35;;;3.53;;
71298;SDS011;59083;47.974;21.722;2023-06-14T16:46:01;10.18;;;3.12;;
71298;SDS011;59083;47.974;21.722;2023-06-14T16:49:02;7.18;;;3.67;;
71298;SDS011;59083;47.974;21.722;2023-06-14T16:52:04;7.50;;;4.27;;
71298;SDS011;59083;47.974;21.722;2023-06-14T16:55:06;7.00;;;3.37;;
71298;SDS011;59083;47.974;21.722;2023-06-14T16:58:08;8.23;;;3.70;;
71298;SDS011;59083;47.974;21.722;2023-06-14T17:01:09;8.10;;;3.60;;
71298;SDS011;59083;47.974;21.722;2023-06-14T17:04:10;8.85;;;4.37;;
71298;SDS011;59083;47.974;21.722;2023-06-14T17:07:12;7.60;;;4.00;;
71298;SDS011;59083;47.974;21.722;2023-06-14T17:10:13;8.20;;;3.70;;
71298;SDS011;59083;47.974;21.722;2023-06-14T17:13:14;7.65;;;4.40;;
71298;SDS011;59083;47.974;21.722;2023-06-14T17:16:15;7.50;;;3.70;;
71298;SDS011;59083;47.974;21.722;2023-06-14T17:19:17;9.68;;;4.32;;
71298;SDS011;59083;47.974;21.722;2023-06-14T17:22:18;6.67;;;3.67;;
71298;SDS011;59083;47.974;21.722;2023-06-14T17:25:20;8.48;;;3.80;;
71298;SDS011;59083;47.974;21.722;2023-06-14T17:28:21;9.93;;;4.30;;
71298;SDS011;59083;47.974;21.722;2023-06-14T17:31:22;8.93;;;3.50;;
71298;SDS011;59083;47.974;21.722;2023-06-14T17:34:23;6.43;;;3.58;;
71298;SDS011;59083;47.974;21.722;2023-06-14T17:37:24;8.47;;;3.60;;
71298;SDS011;59083;47.974;21.722;2023-06-14T17:40:26;7.95;;;4.10;;
71298;SDS011;59083;47.974;21.722;2023-06-14T17:43:27;8.52;;;3.90;;
71298;SDS011;59083;47.974;21.722;2023-06-14T17:46:28;7.28;;;4.03;;
71298;SDS011;59083;47.974;21.722;2023-06-14T17:49:29;7.62;;;3.92;;
71298;SDS011;59083;47.974;21.722;2023-06-14T17:52:31;8.30;;;3.93;;
71298;SDS011;59083;47.974;21.722;2023-06-14T17:55:32;7.80;;;3.62;;
71298;SDS011;59083;47.974;21.722;2023-06-14T17:58:34;7.97;;;4.00;;
71298;SDS011;59083;47.974;21.722;2023-06-14T18:01:35;9.65;;;3.62;;
71298;SDS011;59083;47.974;21.722;2023-06-14T18:04:37;12.20;;;3.95;;
71298;SDS011;59083;47.974;21.722;2023-06-14T18:07:38;7.77;;;4.03;;